createdAt,value
2019-03-29T00:00:34.262Z,76.21
2019-03-29T00:03:01.308Z,76.31
2019-03-29T00:05:28.682Z,76.45
2019-03-29T00:07:55.749Z,76.58
2019-03-29T00:10:23.099Z,76.71
2019-03-29T00:12:50.148Z,77.06
2019-03-29T00:15:17.490Z,77.46
2019-03-29T00:17:44.861Z,77.86
2019-03-29T00:20:11.885Z,78.30
2019-03-29T00:22:39.247Z,78.42
2019-03-29T00:25:07.090Z,78.97
2019-03-29T00:27:34.589Z,79.77
2019-03-29T00:30:01.926Z,79.83
2019-03-29T00:32:29.156Z,80.89
2019-03-29T00:34:56.188Z,81.05
2019-03-29T00:37:23.228Z,80.77
2019-03-29T00:39:50.259Z,81.06
2019-03-29T00:42:17.389Z,81.26
2019-03-29T00:44:44.419Z,81.54
2019-03-29T00:47:11.469Z,82.17
2019-03-29T00:49:38.505Z,82.37
2019-03-29T00:52:05.872Z,82.55
2019-03-29T00:54:32.917Z,82.70
2019-03-29T00:57:00.270Z,82.86
2019-03-29T00:59:27.323Z,83.00
2019-03-29T01:01:54.678Z,83.24
2019-03-29T01:04:21.730Z,83.26
2019-03-29T01:06:48.794Z,83.18
2019-03-29T01:09:15.827Z,83.29
2019-03-29T01:11:42.880Z,83.69
2019-03-29T01:14:10.222Z,83.60
2019-03-29T01:16:37.505Z,84.04
2019-03-29T01:19:04.557Z,83.75
2019-03-29T01:21:31.839Z,84.07
2019-03-29T01:23:58.890Z,84.20
2019-03-29T01:26:27.049Z,84.41
2019-03-29T01:28:54.384Z,84.67
2019-03-29T01:31:21.404Z,84.74
2019-03-29T01:33:48.450Z,84.92
2019-03-29T01:36:15.806Z,84.74
2019-03-29T01:38:42.856Z,85.13
2019-03-29T01:41:09.889Z,85.12
2019-03-29T01:43:36.955Z,85.13
2019-03-29T01:46:03.979Z,85.41
2019-03-29T01:48:31.029Z,85.71
2019-03-29T01:50:58.138Z,85.93
2019-03-29T01:53:25.362Z,85.72
2019-03-29T01:55:52.698Z,86.01
2019-03-29T01:58:19.830Z,85.94
2019-03-29T02:00:47.019Z,86.09
2019-03-29T02:03:14.388Z,86.28
2019-03-29T02:05:41.427Z,86.45
2019-03-29T02:08:08.482Z,86.44
2019-03-29T02:10:35.808Z,87.07
2019-03-29T02:13:02.845Z,87.12
2019-03-29T02:15:29.889Z,86.81
2019-03-29T02:17:57.273Z,87.09
2019-03-29T02:20:25.296Z,87.15
2019-03-29T02:22:52.332Z,87.18
2019-03-29T02:25:19.377Z,87.29
2019-03-29T02:27:46.684Z,87.07
2019-03-29T02:30:14.035Z,87.00
2019-03-29T02:32:41.077Z,87.41
2019-03-29T02:35:08.466Z,87.57
2019-03-29T02:37:35.562Z,87.40
2019-03-29T02:40:02.617Z,87.50
2019-03-29T02:42:29.907Z,87.69
2019-03-29T02:44:57.243Z,87.52
2019-03-29T02:47:24.533Z,87.63
2019-03-29T02:49:52.661Z,87.69
2019-03-29T02:52:19.697Z,87.25
2019-03-29T02:54:47.210Z,87.85
2019-03-29T02:57:14.537Z,88.13
2019-03-29T02:59:41.587Z,88.40
2019-03-29T03:02:09.960Z,88.44
2019-03-29T03:04:37.014Z,88.55
2019-03-29T03:07:19.478Z,88.52
2019-03-29T03:09:46.520Z,88.76
2019-03-29T03:12:13.560Z,88.78
2019-03-29T03:14:41.926Z,88.73
2019-03-29T03:17:09.040Z,89.05
2019-03-29T03:19:36.394Z,89.32
2019-03-29T03:22:03.462Z,89.54
2019-03-29T03:24:30.474Z,89.34
2019-03-29T03:26:57.874Z,89.45
2019-03-29T03:29:24.947Z,89.63
2019-03-29T03:31:52.260Z,89.96
2019-03-29T03:34:19.311Z,89.82
2019-03-29T03:36:46.650Z,89.45
2019-03-29T03:39:30.730Z,89.22
2019-03-29T03:41:43.028Z,89.16
2019-03-29T03:44:10.131Z,89.24
2019-03-29T03:46:37.297Z,89.63
2019-03-29T03:49:04.552Z,89.85
2019-03-29T03:51:31.678Z,90.02
2019-03-29T03:53:58.789Z,90.05
2019-03-29T03:56:25.853Z,89.90
2019-03-29T03:58:53.359Z,89.96
2019-03-29T04:01:20.755Z,90.42
2019-03-29T04:03:47.863Z,90.78
2019-03-29T04:06:15.258Z,91.25
2019-03-29T04:08:42.275Z,91.55
2019-03-29T04:13:47.575Z,91.58
2019-03-29T04:16:14.985Z,91.14
2019-03-29T04:18:42.031Z,91.01
2019-03-29T04:21:09.081Z,90.95
2019-03-29T04:23:36.119Z,91.13
2019-03-29T04:26:03.484Z,91.16
2019-03-29T04:28:30.531Z,91.21
2019-03-29T04:30:57.594Z,91.31
2019-03-29T04:33:24.645Z,91.21
2019-03-29T04:35:51.751Z,91.24
2019-03-29T04:38:19.152Z,91.35
2019-03-29T04:40:46.463Z,91.59
2019-03-29T04:43:13.496Z,92.02
2019-03-29T04:45:40.569Z,92.51
2019-03-29T04:48:08.159Z,92.76
2019-03-29T04:50:35.254Z,92.91
2019-03-29T04:53:02.328Z,92.94
2019-03-29T04:55:29.715Z,92.93
2019-03-29T04:57:56.759Z,93.10
2019-03-29T05:00:23.813Z,93.23
2019-03-29T05:02:50.855Z,93.26
2019-03-29T05:05:17.913Z,93.14
2019-03-29T05:07:44.951Z,92.86
2019-03-29T05:10:20.924Z,92.56
2019-03-29T05:12:41.388Z,92.46
2019-03-29T05:15:08.454Z,92.39
2019-03-29T05:17:35.786Z,92.32
2019-03-29T05:20:03.148Z,92.16
2019-03-29T05:22:30.441Z,92.03
2019-03-29T05:24:57.476Z,91.71
2019-03-29T05:27:24.530Z,91.40
2019-03-29T05:29:51.643Z,91.27
2019-03-29T05:32:18.690Z,91.05
2019-03-29T05:34:45.730Z,90.66
2019-03-29T05:37:12.786Z,90.44
2019-03-29T05:39:40.160Z,90.28
2019-03-29T05:42:07.515Z,90.14
2019-03-29T05:44:34.560Z,89.87
2019-03-29T05:47:01.686Z,89.66
2019-03-29T05:49:28.731Z,89.54
2019-03-29T05:51:55.782Z,89.45
2019-03-29T05:54:22.821Z,89.32
2019-03-29T05:56:50.193Z,89.07
2019-03-29T05:59:17.230Z,88.86
2019-03-29T06:01:44.291Z,88.74
2019-03-29T06:04:11.329Z,88.53
2019-03-29T06:06:38.691Z,88.18
2019-03-29T06:09:05.726Z,87.92
2019-03-29T06:11:32.781Z,87.65
2019-03-29T06:13:59.817Z,86.79
2019-03-29T06:16:38.436Z,85.57
2019-03-29T06:18:55.895Z,85.35
2019-03-29T06:21:23.247Z,84.27
2019-03-29T06:23:51.352Z,83.67
2019-03-29T06:26:19.480Z,81.32
2019-03-29T06:28:46.513Z,81.20
2019-03-29T06:31:14.538Z,81.42
2019-03-29T06:33:44.399Z,81.08
2019-03-29T06:36:10.413Z,81.59
2019-03-29T06:38:37.793Z,81.73
2019-03-29T06:41:04.843Z,81.16
2019-03-29T06:43:31.879Z,80.98
2019-03-29T06:45:58.917Z,80.26
2019-03-29T06:48:25.971Z,79.98
2019-03-29T06:50:53.186Z,79.73
2019-03-29T06:53:20.444Z,78.09
2019-03-29T06:55:50.699Z,77.48
2019-03-29T06:58:18.065Z,73.94
2019-03-29T07:00:46.674Z,71.88
2019-03-29T07:03:13.935Z,72.03
2019-03-29T07:05:40.983Z,70.67
2019-03-29T07:08:08.035Z,65.61
2019-03-29T07:10:35.077Z,63.84
2019-03-29T07:13:02.418Z,63.16
2019-03-29T07:15:29.462Z,64.96
2019-03-29T07:17:56.514Z,67.83
2019-03-29T07:20:23.551Z,65.14
2019-03-29T07:22:50.899Z,62.45
2019-03-29T07:25:17.940Z,60.22
2019-03-29T07:27:51.891Z,58.62
2019-03-29T07:30:14.092Z,58.72
2019-03-29T07:32:41.158Z,58.33
2019-03-29T07:35:08.204Z,56.57
2019-03-29T07:37:36.326Z,56.31
2019-03-29T07:40:03.380Z,54.24
2019-03-29T07:42:30.437Z,55.33
2019-03-29T07:44:58.547Z,56.76
2019-03-29T07:47:25.883Z,57.52
2019-03-29T07:49:52.995Z,58.22
2019-03-29T07:52:20.047Z,56.69
2019-03-29T07:54:47.094Z,54.69
2019-03-29T07:57:14.147Z,52.93
2019-03-29T07:59:41.190Z,52.34
2019-03-29T08:02:08.249Z,51.34
2019-03-29T08:04:35.294Z,51.42
2019-03-29T08:07:02.351Z,52.16
2019-03-29T08:09:29.387Z,50.20
2019-03-29T08:11:56.774Z,50.67
2019-03-29T08:14:23.820Z,50.39
2019-03-29T08:16:50.874Z,50.72
2019-03-29T08:19:17.921Z,47.50
2019-03-29T08:21:45.271Z,49.68
2019-03-29T08:24:12.634Z,48.84
2019-03-29T08:26:40.014Z,48.07
2019-03-29T08:29:07.356Z,47.08
2019-03-29T08:31:34.393Z,47.04
2019-03-29T08:34:01.458Z,46.97
2019-03-29T08:36:28.668Z,46.43
2019-03-29T08:38:56.059Z,47.48
2019-03-29T08:41:23.398Z,47.78
2019-03-29T08:43:50.450Z,45.89
2019-03-29T08:46:18.566Z,45.80
2019-03-29T08:48:45.976Z,46.76
2019-03-29T08:51:13.022Z,46.97
2019-03-29T08:53:40.090Z,46.46
2019-03-29T08:56:07.136Z,46.21
2019-03-29T08:58:34.475Z,45.14
2019-03-29T09:01:01.521Z,46.87
2019-03-29T09:03:28.588Z,45.89
2019-03-29T09:05:55.636Z,46.51
2019-03-29T09:08:23.763Z,45.27
2019-03-29T09:10:50.807Z,48.53
2019-03-29T09:13:18.204Z,50.33
2019-03-29T09:15:45.573Z,49.08
2019-03-29T09:18:12.626Z,46.97
2019-03-29T09:20:39.951Z,46.39
2019-03-29T09:23:10.323Z,45.17
2019-03-29T09:25:36.050Z,44.14
2019-03-29T09:28:03.473Z,41.98
2019-03-29T09:30:30.807Z,41.38
2019-03-29T09:32:57.862Z,40.53
2019-03-29T09:35:25.211Z,39.88
2019-03-29T09:37:52.267Z,39.78
2019-03-29T09:40:19.312Z,38.97
2019-03-29T09:42:46.365Z,38.34
2019-03-29T09:45:13.409Z,38.90
2019-03-29T09:47:41.026Z,38.23
2019-03-29T09:50:10.322Z,39.36
2019-03-29T09:52:37.276Z,39.36
2019-03-29T09:55:04.327Z,40.43
2019-03-29T09:57:37.376Z,41.29
2019-03-29T10:00:00.534Z,41.35
2019-03-29T10:02:27.591Z,38.95
2019-03-29T10:04:54.637Z,42.13
2019-03-29T10:07:21.680Z,43.61
2019-03-29T10:09:48.817Z,41.96
2019-03-29T10:12:16.933Z,42.22
2019-03-29T10:14:43.983Z,41.00
2019-03-29T10:17:11.379Z,41.78
2019-03-29T10:19:38.436Z,39.98
2019-03-29T10:22:05.477Z,39.17
2019-03-29T10:24:32.533Z,39.35
2019-03-29T10:26:59.580Z,38.83
2019-03-29T10:29:26.632Z,36.73
2019-03-29T10:31:53.972Z,35.78
2019-03-29T10:34:21.321Z,34.44
2019-03-29T10:36:48.606Z,35.17
2019-03-29T10:39:15.658Z,35.42
2019-03-29T10:41:42.693Z,36.08
2019-03-29T10:44:09.747Z,39.12
2019-03-29T10:46:37.855Z,40.16
2019-03-29T10:49:04.915Z,40.29
2019-03-29T10:51:32.298Z,40.47
2019-03-29T10:53:59.669Z,40.23
2019-03-29T10:56:33.871Z,41.69
2019-03-29T10:58:56.424Z,41.14
2019-03-29T11:01:24.966Z,42.24
2019-03-29T11:03:52.044Z,41.27
2019-03-29T11:06:20.049Z,38.05
2019-03-29T11:08:47.186Z,40.07
2019-03-29T11:11:14.231Z,39.70
2019-03-29T11:13:41.449Z,36.18
2019-03-29T11:16:08.509Z,35.31
2019-03-29T11:18:35.868Z,33.87
2019-03-29T11:21:02.919Z,33.90
2019-03-29T11:23:30.288Z,32.07
2019-03-29T11:25:57.341Z,31.91
2019-03-29T11:28:24.671Z,32.87
2019-03-29T11:30:51.730Z,34.55
2019-03-29T11:33:19.092Z,34.54
2019-03-29T11:35:46.147Z,33.54
2019-03-29T11:38:13.192Z,31.78
2019-03-29T11:40:40.253Z,30.68
2019-03-29T11:43:07.284Z,29.31
2019-03-29T11:45:34.415Z,29.51
2019-03-29T11:48:08.130Z,29.81
2019-03-29T11:50:30.481Z,28.33
2019-03-29T11:52:57.523Z,29.33
2019-03-29T11:55:24.576Z,29.39
2019-03-29T11:57:51.691Z,30.37
2019-03-29T12:00:19.057Z,29.81
2019-03-29T12:02:46.162Z,28.92
2019-03-29T12:05:13.221Z,32.05
2019-03-29T12:07:40.253Z,32.72
2019-03-29T12:10:07.307Z,32.44
2019-03-29T12:12:34.341Z,31.19
2019-03-29T12:15:01.397Z,29.24
2019-03-29T12:17:30.150Z,30.36
2019-03-29T12:19:57.201Z,30.28
2019-03-29T12:22:24.540Z,28.24
2019-03-29T12:24:51.893Z,26.99
2019-03-29T12:27:18.939Z,26.96
2019-03-29T12:29:46.296Z,25.34
2019-03-29T12:32:13.334Z,25.16
2019-03-29T12:34:40.379Z,25.55
2019-03-29T12:37:07.766Z,26.85
2019-03-29T12:39:35.101Z,26.73
2019-03-29T12:42:04.113Z,27.27
2019-03-29T12:44:31.149Z,26.41
2019-03-29T12:46:58.197Z,27.64
2019-03-29T12:49:26.569Z,27.93
2019-03-29T12:51:53.619Z,27.93
2019-03-29T12:54:20.975Z,25.75
2019-03-29T12:56:48.345Z,27.78
2019-03-29T12:59:15.641Z,28.10
2019-03-29T13:01:43.058Z,29.61
2019-03-29T13:04:10.099Z,29.10
2019-03-29T13:06:37.462Z,27.59
2019-03-29T13:09:04.496Z,27.75
2019-03-29T13:11:32.050Z,27.00
2019-03-29T13:14:10.082Z,27.83
2019-03-29T13:16:28.799Z,28.78
2019-03-29T13:18:55.840Z,29.09
2019-03-29T13:21:23.218Z,31.96
2019-03-29T13:23:50.252Z,33.04
2019-03-29T13:26:17.300Z,34.66
2019-03-29T13:28:44.330Z,35.57
2019-03-29T13:31:11.391Z,36.33
2019-03-29T13:33:38.433Z,37.07
2019-03-29T13:36:05.486Z,38.15
2019-03-29T13:38:32.532Z,40.17
2019-03-29T13:40:59.905Z,40.03
2019-03-29T13:43:26.942Z,40.63
2019-03-29T13:45:54.033Z,39.74
2019-03-29T13:48:21.052Z,41.23
2019-03-29T13:50:48.103Z,40.34
2019-03-29T13:53:15.141Z,40.86
2019-03-29T13:55:42.203Z,41.43
2019-03-29T13:58:09.251Z,40.70
2019-03-29T14:00:36.550Z,42.91
2019-03-29T14:03:03.591Z,41.35
2019-03-29T14:05:30.639Z,40.70
2019-03-29T14:07:57.749Z,40.97
2019-03-29T14:10:24.810Z,41.00
2019-03-29T14:12:51.850Z,42.34
2019-03-29T14:15:19.186Z,41.83
2019-03-29T14:17:46.244Z,41.81
2019-03-29T14:20:13.295Z,41.76
2019-03-29T14:22:40.656Z,43.11
2019-03-29T14:25:07.697Z,41.66
2019-03-29T14:27:35.044Z,42.82
2019-03-29T14:30:04.738Z,44.31
2019-03-29T14:32:31.496Z,42.49
2019-03-29T14:34:58.975Z,42.33
2019-03-29T14:37:26.027Z,41.81
2019-03-29T14:39:54.480Z,42.00
2019-03-29T14:42:21.535Z,42.98
2019-03-29T14:44:52.798Z,42.40
2019-03-29T14:47:17.574Z,42.87
2019-03-29T14:49:44.615Z,42.94
2019-03-29T14:52:11.670Z,42.29
2019-03-29T14:54:38.711Z,42.01
2019-03-29T14:57:06.089Z,42.53
2019-03-29T14:59:33.423Z,42.62
2019-03-29T15:02:00.486Z,43.02
2019-03-29T15:04:27.518Z,42.16
2019-03-29T15:06:54.890Z,43.43
2019-03-29T15:09:22.234Z,41.44
2019-03-29T15:11:49.602Z,42.11
2019-03-29T15:14:16.649Z,42.09
2019-03-29T15:16:44.006Z,42.02
2019-03-29T15:19:11.051Z,42.33
2019-03-29T15:21:42.725Z,42.77
2019-03-29T15:24:09.698Z,40.54
2019-03-29T15:26:36.754Z,41.05
2019-03-29T15:29:03.793Z,40.14
2019-03-29T15:31:30.847Z,40.83
2019-03-29T15:33:57.895Z,40.22
2019-03-29T15:36:24.945Z,40.04
2019-03-29T15:38:51.985Z,40.86
2019-03-29T15:41:19.062Z,41.99
2019-03-29T15:43:46.447Z,40.68
2019-03-29T15:46:13.488Z,41.45
2019-03-29T15:48:40.548Z,42.02
2019-03-29T15:51:07.596Z,42.37
2019-03-29T15:53:34.648Z,42.11
2019-03-29T15:56:01.816Z,43.44
2019-03-29T15:58:28.850Z,43.33
2019-03-29T16:00:55.900Z,43.86
2019-03-29T16:03:23.030Z,44.41
2019-03-29T16:05:50.077Z,45.64
2019-03-29T16:08:18.205Z,43.61
2019-03-29T16:10:45.243Z,44.43
2019-03-29T16:13:12.299Z,44.02
2019-03-29T16:15:39.609Z,43.18
2019-03-29T16:18:06.943Z,44.28
2019-03-29T16:20:33.985Z,44.21
2019-03-29T16:23:01.357Z,44.40
2019-03-29T16:25:28.387Z,45.21
2019-03-29T16:27:55.448Z,45.46
2019-03-29T16:30:22.492Z,44.82
2019-03-29T16:32:49.968Z,44.67
2019-03-29T16:35:17.021Z,45.20
2019-03-29T16:37:56.568Z,45.60
2019-03-29T16:40:13.097Z,45.63
2019-03-29T16:42:40.152Z,46.06
2019-03-29T16:45:07.191Z,45.44
2019-03-29T16:47:35.352Z,45.56
2019-03-29T16:50:02.358Z,45.56
2019-03-29T16:52:29.690Z,46.28
2019-03-29T16:54:57.064Z,46.74
2019-03-29T16:57:24.699Z,46.60
2019-03-29T16:59:52.212Z,46.91
2019-03-29T17:02:19.328Z,47.24
2019-03-29T17:04:46.454Z,46.84
2019-03-29T17:07:13.742Z,46.72
2019-03-29T17:09:40.979Z,47.32
2019-03-29T17:12:08.183Z,47.38
2019-03-29T17:14:35.245Z,48.04
2019-03-29T17:17:02.284Z,48.58
2019-03-29T17:19:29.346Z,48.51
2019-03-29T17:21:56.394Z,47.98
2019-03-29T17:24:23.735Z,48.36
2019-03-29T17:26:54.111Z,48.67
2019-03-29T17:29:20.040Z,48.61
2019-03-29T17:31:47.116Z,48.78
2019-03-29T17:34:14.178Z,49.06
2019-03-29T17:36:41.237Z,49.12
2019-03-29T17:39:08.290Z,49.18
2019-03-29T17:41:35.603Z,49.38
2019-03-29T17:44:02.662Z,49.55
2019-03-29T17:46:29.704Z,49.51
2019-03-29T17:48:56.764Z,49.91
2019-03-29T17:51:23.811Z,50.15
2019-03-29T17:53:50.874Z,49.91
2019-03-29T17:56:18.989Z,50.17
2019-03-29T17:58:46.052Z,50.09
2019-03-29T18:01:13.101Z,50.12
2019-03-29T18:03:40.161Z,50.18
2019-03-29T18:06:07.214Z,50.33
2019-03-29T18:08:34.280Z,50.60
2019-03-29T18:11:01.328Z,50.79
2019-03-29T18:13:28.376Z,50.94
2019-03-29T18:15:55.465Z,50.87
2019-03-29T18:18:22.515Z,51.19
2019-03-29T18:20:49.887Z,51.39
2019-03-29T18:23:17.243Z,51.64
2019-03-29T18:25:44.311Z,52.00
2019-03-29T18:28:11.358Z,52.02
2019-03-29T18:30:38.426Z,52.24
2019-03-29T18:33:05.482Z,52.59
2019-03-29T18:35:32.892Z,52.75
2019-03-29T18:38:00.349Z,53.17
2019-03-29T18:40:27.578Z,53.43
2019-03-29T18:42:56.235Z,53.74
2019-03-29T18:45:23.289Z,54.21
2019-03-29T18:47:50.343Z,54.41
2019-03-29T18:50:17.394Z,54.59
2019-03-29T18:52:44.440Z,54.71
2019-03-29T18:55:14.748Z,54.73
2019-03-29T18:57:41.798Z,54.85
2019-03-29T19:00:08.877Z,54.83
2019-03-29T19:02:45.196Z,54.94
2019-03-29T19:05:12.254Z,55.27
2019-03-29T19:07:40.419Z,55.33
2019-03-29T19:10:12.497Z,55.61
2019-03-29T19:12:46.492Z,55.77
2019-03-29T19:17:57.983Z,55.92
2019-03-29T19:20:27.682Z,55.99
2019-03-29T19:22:55.796Z,56.11
2019-03-29T19:25:23.977Z,56.41
2019-03-29T19:27:52.233Z,56.30
2019-03-29T19:30:19.504Z,56.65
2019-03-29T19:32:49.769Z,56.17
2019-03-29T19:35:16.981Z,56.13
2019-03-29T19:37:52.515Z,56.10
2019-03-29T19:40:20.797Z,55.86
2019-03-29T19:42:48.132Z,55.43
2019-03-29T19:48:05.885Z,55.13
2019-03-29T19:50:32.959Z,55.25
2019-03-29T19:53:06.027Z,55.22
2019-03-29T19:55:35.245Z,55.17
2019-03-29T19:58:04.477Z,55.33
2019-03-29T20:00:31.716Z,55.66
2019-03-29T20:03:07.750Z,55.69
2019-03-29T20:05:35.930Z,55.63
2019-03-29T20:08:04.187Z,56.09
2019-03-29T20:10:32.486Z,56.08
2019-03-29T20:13:12.718Z,56.39
2019-03-29T20:15:39.990Z,56.30
2019-03-29T20:18:07.042Z,56.18
2019-03-29T20:23:28.377Z,56.58
2019-03-29T20:25:55.427Z,56.85
2019-03-29T20:28:23.679Z,56.83
2019-03-29T20:30:55.661Z,57.00
2019-03-29T20:33:23.920Z,56.88
2019-03-29T20:38:26.841Z,57.43
2019-03-29T20:43:26.870Z,57.10
2019-03-29T20:45:55.049Z,57.10
2019-03-29T20:48:39.490Z,57.20
2019-03-29T20:51:12.500Z,57.38
2019-03-29T20:53:43.744Z,57.33
2019-03-29T20:56:13.148Z,57.68
2019-03-29T20:58:42.319Z,57.56
2019-03-29T21:01:09.592Z,57.66
2019-03-29T21:03:52.263Z,57.69
2019-03-29T21:06:19.459Z,57.97
2019-03-29T21:09:00.008Z,58.31
2019-03-29T21:11:29.309Z,58.40
2019-03-29T21:13:56.211Z,58.47
2019-03-29T21:16:24.239Z,58.57
2019-03-29T21:18:51.280Z,58.29
2019-03-29T21:21:19.460Z,58.40
2019-03-29T21:23:48.350Z,58.46
2019-03-29T21:28:52.771Z,58.65
2019-03-29T21:33:59.884Z,58.99
2019-03-29T21:36:31.959Z,58.49
2019-03-29T21:39:05.951Z,58.60
2019-03-29T21:41:35.369Z,59.03
2019-03-29T21:44:02.608Z,59.10
2019-03-29T21:46:29.879Z,59.37
2019-03-29T21:49:00.178Z,59.25
2019-03-29T21:54:04.386Z,59.50
2019-03-29T22:01:50.457Z,60.21
2019-03-29T22:04:24.552Z,60.05
2019-03-29T22:06:56.234Z,60.47
2019-03-29T22:09:36.902Z,60.77
2019-03-29T22:11:56.470Z,60.84
2019-03-29T22:14:24.906Z,61.34
2019-03-29T22:16:54.150Z,61.67
2019-03-29T22:19:21.187Z,61.70
2019-03-29T22:21:48.457Z,61.84
2019-03-29T22:24:24.796Z,62.11
2019-03-29T22:26:52.990Z,61.95
2019-03-29T22:29:24.600Z,62.19
2019-03-29T22:31:57.121Z,62.25
2019-03-29T22:34:25.658Z,61.66
2019-03-29T22:39:25.125Z,61.78
2019-03-29T22:44:35.507Z,61.60
2019-03-29T22:47:05.929Z,61.81
2019-03-29T22:49:40.236Z,61.84
2019-03-29T22:52:09.450Z,61.62
2019-03-29T22:54:44.985Z,61.61
2019-03-29T22:57:12.048Z,61.92
2019-03-29T22:59:45.022Z,61.87
2019-03-29T23:04:59.609Z,62.13
2019-03-29T23:07:26.862Z,62.53
2019-03-29T23:13:01.664Z,62.98
2019-03-29T23:15:29.872Z,63.05
2019-03-29T23:20:47.507Z,63.23
2019-03-29T23:23:15.969Z,63.22
2019-03-29T23:25:55.437Z,63.33
2019-03-29T23:28:28.141Z,63.36
2019-03-29T23:33:48.237Z,63.37
2019-03-29T23:36:15.473Z,63.13
2019-03-29T23:38:45.820Z,63.09
2019-03-29T23:41:13.053Z,63.26
2019-03-29T23:46:20.984Z,62.84
2019-03-29T23:51:27.254Z,62.61
2019-03-29T23:53:55.448Z,62.38
2019-03-29T23:56:22.809Z,62.11
2019-03-29T23:58:50.979Z,61.96
